createdAt,value
2022-12-04T00:00:02.729Z,40.05
2022-12-04T00:01:06.924Z,40.33
2022-12-04T00:02:15.730Z,40.65
2022-12-04T00:03:19.526Z,41.25
2022-12-04T00:04:28.852Z,42.90
2022-12-04T00:05:32.357Z,41.50
2022-12-04T00:06:34.913Z,45.13
2022-12-04T00:07:39.659Z,41.75
2022-12-04T00:08:42.267Z,42.72
2022-12-04T00:09:53.136Z,42.85
2022-12-04T00:10:55.865Z,41.45
2022-12-04T00:11:59.400Z,41.13
2022-12-04T00:13:01.893Z,42.28
2022-12-04T00:14:07.441Z,41.95
2022-12-04T00:15:26.160Z,43.30
2022-12-04T00:16:30.782Z,40.47
2022-12-04T00:17:33.334Z,42.92
2022-12-04T00:18:36.927Z,41.97
2022-12-04T00:19:40.346Z,43.63
2022-12-04T00:20:49.731Z,40.95
2022-12-04T00:21:59.726Z,40.30
2022-12-04T00:23:03.508Z,40.25
2022-12-04T00:24:07.483Z,44.17
2022-12-04T00:25:10.475Z,45.03
2022-12-04T00:26:22.783Z,43.65
2022-12-04T00:27:25.326Z,43.53
2022-12-04T00:28:28.858Z,43.90
2022-12-04T00:29:31.348Z,44.97
2022-12-04T00:30:34.783Z,42.90
2022-12-04T00:31:44.743Z,45.30
2022-12-04T00:32:47.260Z,41.50
2022-12-04T00:33:50.711Z,41.28
2022-12-04T00:34:53.346Z,41.95
2022-12-04T00:36:00.010Z,40.92
2022-12-04T00:37:09.744Z,40.83
2022-12-04T00:38:19.714Z,40.80
2022-12-04T00:39:23.215Z,41.63
2022-12-04T00:40:25.704Z,40.20
2022-12-04T00:41:30.317Z,40.67
2022-12-04T00:42:32.825Z,41.25
2022-12-04T00:43:42.760Z,39.88
2022-12-04T00:44:46.195Z,40.33
2022-12-04T00:45:48.735Z,38.33
2022-12-04T00:46:52.177Z,39.17
2022-12-04T00:48:14.692Z,39.53
2022-12-04T00:49:24.748Z,38.53
2022-12-04T00:50:27.270Z,37.80
2022-12-04T00:51:31.184Z,39.70
2022-12-04T00:52:33.736Z,39.92
2022-12-04T00:53:45.727Z,36.83
2022-12-04T00:54:49.232Z,38.60
2022-12-04T00:55:51.811Z,38.47
2022-12-04T00:56:55.228Z,39.45
2022-12-04T00:58:03.733Z,40.65
2022-12-04T00:59:07.231Z,41.90
2022-12-04T01:00:16.795Z,40.35
2022-12-04T01:01:21.623Z,40.33
2022-12-04T01:02:24.321Z,40.10
2022-12-04T01:03:27.854Z,42.22
2022-12-04T01:04:36.733Z,40.78
2022-12-04T01:05:40.808Z,40.10
2022-12-04T01:06:43.382Z,42.08
2022-12-04T01:07:53.786Z,40.53
2022-12-04T01:08:58.150Z,39.25
2022-12-04T01:10:01.951Z,40.08
2022-12-04T01:11:06.608Z,38.40
2022-12-04T01:12:20.778Z,42.05
2022-12-04T01:13:23.984Z,35.95
2022-12-04T01:14:27.458Z,37.95
2022-12-04T01:15:32.930Z,38.42
2022-12-04T01:16:37.834Z,38.40
2022-12-04T01:17:46.731Z,38.33
2022-12-04T01:18:50.522Z,38.03
2022-12-04T01:19:59.735Z,38.33
2022-12-04T01:21:03.229Z,41.38
2022-12-04T01:22:05.698Z,41.92
2022-12-04T01:23:09.141Z,42.38
2022-12-04T01:24:12.959Z,40.50
2022-12-04T01:25:22.738Z,39.75
2022-12-04T01:26:26.191Z,37.78
2022-12-04T01:27:28.683Z,39.38
2022-12-04T01:28:32.230Z,39.13
2022-12-04T01:29:34.884Z,39.33
2022-12-04T01:30:44.741Z,38.15
2022-12-04T01:31:47.382Z,38.35
2022-12-04T01:32:50.916Z,38.92
2022-12-04T01:33:53.430Z,38.60
2022-12-04T01:35:03.749Z,38.92
2022-12-04T01:36:13.749Z,37.75
2022-12-04T01:37:17.193Z,38.03
2022-12-04T01:38:19.685Z,39.15
2022-12-04T01:39:24.496Z,40.10
2022-12-04T01:40:33.760Z,38.22
2022-12-04T01:41:37.225Z,40.80
2022-12-04T01:42:39.734Z,40.33
2022-12-04T01:43:43.268Z,39.72
2022-12-04T01:45:05.765Z,38.67
2022-12-04T01:46:16.842Z,37.13
2022-12-04T01:47:25.729Z,38.47
2022-12-04T01:48:37.216Z,39.30
2022-12-04T01:49:41.897Z,40.85
2022-12-04T01:50:46.109Z,38.95
2022-12-04T01:51:58.743Z,41.55
2022-12-04T01:53:01.444Z,37.55
2022-12-04T01:54:07.878Z,38.55
2022-12-04T01:55:11.771Z,38.38
2022-12-04T01:56:15.891Z,39.88
2022-12-04T01:57:25.755Z,39.75
2022-12-04T01:58:32.891Z,38.63
2022-12-04T01:59:36.832Z,37.28
2022-12-04T02:00:40.281Z,36.72
2022-12-04T02:01:45.233Z,37.55
2022-12-04T02:02:55.909Z,38.15
2022-12-04T02:03:59.040Z,36.75
2022-12-04T02:05:02.741Z,39.50
2022-12-04T02:06:05.641Z,43.03
2022-12-04T02:07:09.202Z,42.17
2022-12-04T02:08:18.772Z,39.00
2022-12-04T02:09:26.755Z,37.33
2022-12-04T02:10:33.643Z,37.80
2022-12-04T02:11:40.242Z,37.33
2022-12-04T02:12:52.749Z,37.35
2022-12-04T02:13:59.090Z,37.83
2022-12-04T02:15:07.066Z,37.10
2022-12-04T02:16:15.520Z,39.03
2022-12-04T02:17:21.821Z,39.88
2022-12-04T02:18:36.129Z,37.83
2022-12-04T02:19:50.208Z,37.42
2022-12-04T02:20:58.181Z,39.92
2022-12-04T02:22:03.707Z,37.22
2022-12-04T02:23:25.454Z,38.50
2022-12-04T02:24:43.955Z,37.70
2022-12-04T02:25:56.934Z,37.08
2022-12-04T02:27:00.525Z,38.95
2022-12-04T02:28:10.344Z,38.92
2022-12-04T02:29:16.235Z,39.03
2022-12-04T02:30:25.792Z,38.97
2022-12-04T02:31:31.930Z,37.60
2022-12-04T02:32:39.222Z,39.33
2022-12-04T02:33:43.721Z,40.53
2022-12-04T02:34:59.768Z,40.70
2022-12-04T02:36:04.473Z,39.35
2022-12-04T02:37:10.833Z,41.88
2022-12-04T02:38:18.041Z,40.28
2022-12-04T02:39:24.120Z,39.08
2022-12-04T02:40:35.756Z,38.92
2022-12-04T02:41:41.729Z,38.85
2022-12-04T02:42:46.314Z,37.10
2022-12-04T02:43:51.919Z,37.00
2022-12-04T02:44:56.902Z,35.92
2022-12-04T02:46:07.785Z,37.97
2022-12-04T02:47:20.008Z,35.72
2022-12-04T02:48:38.726Z,35.17
2022-12-04T02:49:46.503Z,34.42
2022-12-04T02:50:58.720Z,35.78
2022-12-04T02:52:02.471Z,37.05
2022-12-04T02:53:13.775Z,38.42
2022-12-04T02:54:23.743Z,37.85
2022-12-04T02:55:30.024Z,37.05
2022-12-04T02:56:35.539Z,38.33
2022-12-04T02:57:47.731Z,38.38
2022-12-04T02:58:54.788Z,37.17
2022-12-04T02:59:59.362Z,37.58
2022-12-04T03:01:03.705Z,38.90
2022-12-04T03:02:11.176Z,39.72
2022-12-04T03:03:23.752Z,37.63
2022-12-04T03:04:30.680Z,38.13
2022-12-04T03:05:34.959Z,36.85
2022-12-04T03:06:39.484Z,37.22
2022-12-04T03:07:51.820Z,38.70
2022-12-04T03:08:57.006Z,37.63
2022-12-04T03:10:01.266Z,35.20
2022-12-04T03:11:05.186Z,36.10
2022-12-04T03:12:10.614Z,37.15
2022-12-04T03:13:22.790Z,37.38
2022-12-04T03:14:29.967Z,35.78
2022-12-04T03:15:35.526Z,37.45
2022-12-04T03:16:40.171Z,37.20
2022-12-04T03:17:46.970Z,38.28
2022-12-04T03:18:58.763Z,38.15
2022-12-04T03:20:07.048Z,38.17
2022-12-04T03:21:10.944Z,39.08
2022-12-04T03:22:16.882Z,40.65
2022-12-04T03:23:21.814Z,42.10
2022-12-04T03:24:32.743Z,40.88
2022-12-04T03:25:38.588Z,40.45
2022-12-04T03:26:45.223Z,40.45
2022-12-04T03:27:52.005Z,38.13
2022-12-04T03:29:04.815Z,40.13
2022-12-04T03:30:16.732Z,38.53
2022-12-04T03:31:23.727Z,39.03
2022-12-04T03:32:28.463Z,36.22
2022-12-04T03:33:33.408Z,36.47
2022-12-04T03:34:44.802Z,35.95
2022-12-04T03:35:50.665Z,39.90
2022-12-04T03:37:01.770Z,38.28
2022-12-04T03:38:06.554Z,37.63
2022-12-04T03:39:13.203Z,40.00
2022-12-04T03:40:19.290Z,38.15
2022-12-04T03:41:32.754Z,39.30
2022-12-04T03:42:46.738Z,36.78
2022-12-04T03:43:51.904Z,35.33
2022-12-04T03:44:59.114Z,36.63
2022-12-04T03:46:06.480Z,37.08
2022-12-04T03:47:18.801Z,37.05
2022-12-04T03:48:28.962Z,36.90
2022-12-04T03:49:42.379Z,37.03
2022-12-04T03:50:49.282Z,38.03
2022-12-04T03:52:03.778Z,37.25
2022-12-04T03:53:10.449Z,38.20
2022-12-04T03:54:14.977Z,37.85
2022-12-04T03:55:21.238Z,38.97
2022-12-04T03:56:31.796Z,38.67
2022-12-04T03:57:38.460Z,36.83
2022-12-04T03:58:43.727Z,37.40
2022-12-04T03:59:54.057Z,38.83
2022-12-04T04:01:05.801Z,37.50
2022-12-04T04:02:14.818Z,38.10
2022-12-04T04:03:19.371Z,37.55
2022-12-04T04:04:24.865Z,37.33
2022-12-04T04:05:34.773Z,37.13
2022-12-04T04:06:39.697Z,35.35
2022-12-04T04:07:49.865Z,36.95
2022-12-04T04:08:54.857Z,36.78
2022-12-04T04:09:59.199Z,40.38
2022-12-04T04:11:04.828Z,39.80
2022-12-04T04:12:09.908Z,40.15
2022-12-04T04:13:40.764Z,40.90
2022-12-04T04:15:04.522Z,37.17
2022-12-04T04:16:33.735Z,38.17
2022-12-04T04:17:57.737Z,37.15
2022-12-04T04:19:20.065Z,37.75
2022-12-04T04:20:49.772Z,37.22
2022-12-04T04:22:11.994Z,39.67
2022-12-04T04:23:34.373Z,40.35
2022-12-04T04:24:40.888Z,40.75
2022-12-04T04:25:44.715Z,39.53
2022-12-04T04:26:55.789Z,42.17
2022-12-04T04:27:59.300Z,41.30
2022-12-04T04:29:02.987Z,41.55
2022-12-04T04:30:06.261Z,44.05
2022-12-04T04:31:20.837Z,44.03
2022-12-04T04:32:32.787Z,47.20
2022-12-04T04:33:40.523Z,41.55
2022-12-04T04:34:49.162Z,42.00
2022-12-04T04:35:54.819Z,41.08
2022-12-04T04:37:07.772Z,40.03
2022-12-04T04:38:16.695Z,38.55
2022-12-04T04:39:22.580Z,39.40
2022-12-04T04:40:28.921Z,37.58
2022-12-04T04:41:35.978Z,37.67
2022-12-04T04:42:47.755Z,39.53
2022-12-04T04:43:51.879Z,39.63
2022-12-04T04:45:05.757Z,40.47
2022-12-04T04:46:10.335Z,40.15
2022-12-04T04:47:22.782Z,41.33
2022-12-04T04:48:35.027Z,42.22
2022-12-04T04:49:48.135Z,40.70
2022-12-04T04:50:51.095Z,41.33
2022-12-04T04:51:55.535Z,42.63
2022-12-04T04:53:14.783Z,40.10
2022-12-04T04:54:18.688Z,39.83
2022-12-04T04:55:21.952Z,39.45
2022-12-04T04:56:25.725Z,40.35
2022-12-04T04:57:29.385Z,39.13
2022-12-04T04:58:39.784Z,39.58
2022-12-04T04:59:50.774Z,38.63
2022-12-04T05:01:03.811Z,39.08
2022-12-04T05:02:07.301Z,38.58
2022-12-04T05:03:10.628Z,38.92
2022-12-04T05:04:14.124Z,39.40
2022-12-04T05:05:18.364Z,40.90
2022-12-04T05:06:28.766Z,41.17
2022-12-04T05:07:32.249Z,39.78
2022-12-04T05:08:35.096Z,40.70
2022-12-04T05:09:44.990Z,39.35
2022-12-04T05:10:47.498Z,41.05
2022-12-04T05:11:57.750Z,40.10
2022-12-04T05:13:00.271Z,39.25
2022-12-04T05:14:03.708Z,40.83
2022-12-04T05:15:06.515Z,38.97
2022-12-04T05:16:12.246Z,39.85
2022-12-04T05:17:21.759Z,41.13
2022-12-04T05:18:25.228Z,38.95
2022-12-04T05:19:46.278Z,39.72
2022-12-04T05:20:50.171Z,37.60
2022-12-04T05:21:59.741Z,39.28
2022-12-04T05:23:03.174Z,41.42
2022-12-04T05:24:12.774Z,39.15
2022-12-04T05:25:22.774Z,39.85
2022-12-04T05:26:25.697Z,40.97
2022-12-04T05:27:29.666Z,42.10
2022-12-04T05:28:32.405Z,40.35
2022-12-04T05:29:42.764Z,42.40
2022-12-04T05:30:46.277Z,40.85
2022-12-04T05:31:48.879Z,41.83
2022-12-04T05:32:58.835Z,42.42
2022-12-04T05:34:07.764Z,44.45
2022-12-04T05:35:11.792Z,46.47
2022-12-04T05:36:15.764Z,46.65
2022-12-04T05:37:25.862Z,48.92
2022-12-04T05:38:28.473Z,47.80
2022-12-04T05:39:38.768Z,49.30
2022-12-04T05:40:41.315Z,48.78
2022-12-04T05:41:44.747Z,51.83
2022-12-04T05:42:48.152Z,52.33
2022-12-04T05:43:56.815Z,51.33
2022-12-04T05:45:00.762Z,52.92
2022-12-04T05:46:03.812Z,49.72
2022-12-04T05:47:07.435Z,48.90
2022-12-04T05:48:15.974Z,48.67
2022-12-04T05:49:32.804Z,48.83
2022-12-04T05:50:35.332Z,46.28
2022-12-04T05:51:40.039Z,49.03
2022-12-04T05:52:42.516Z,46.05
2022-12-04T05:53:45.995Z,46.47
2022-12-04T05:54:54.777Z,47.20
2022-12-04T05:55:58.516Z,46.78
2022-12-04T05:57:07.766Z,48.40
2022-12-04T05:58:11.325Z,46.70
2022-12-04T05:59:13.999Z,47.22
2022-12-04T06:00:18.173Z,46.95
2022-12-04T06:01:28.763Z,47.63
2022-12-04T06:02:32.523Z,43.58
2022-12-04T06:03:35.145Z,45.13
2022-12-04T06:04:38.891Z,43.72
2022-12-04T06:05:41.402Z,43.95
2022-12-04T06:06:52.792Z,43.60
2022-12-04T06:07:56.213Z,42.90
2022-12-04T06:08:59.860Z,42.67
2022-12-04T06:10:03.327Z,44.60
2022-12-04T06:11:10.537Z,44.22
2022-12-04T06:12:20.774Z,43.35
2022-12-04T06:13:29.761Z,42.05
2022-12-04T06:14:39.278Z,42.20
2022-12-04T06:15:42.435Z,42.00
2022-12-04T06:16:47.439Z,41.45
2022-12-04T06:17:57.014Z,43.67
2022-12-04T06:19:01.273Z,41.38
2022-12-04T06:20:09.531Z,41.58
2022-12-04T06:21:14.772Z,40.55
2022-12-04T06:22:19.567Z,41.90
2022-12-04T06:23:28.772Z,40.55
2022-12-04T06:24:32.492Z,38.60
2022-12-04T06:25:35.436Z,38.53
2022-12-04T06:26:52.003Z,39.53
2022-12-04T06:28:07.786Z,37.92
2022-12-04T06:29:18.781Z,37.85
2022-12-04T06:30:21.293Z,38.60
2022-12-04T06:31:25.056Z,40.55
2022-12-04T06:32:27.690Z,38.30
2022-12-04T06:33:31.296Z,40.97
2022-12-04T06:34:40.839Z,40.17
2022-12-04T06:35:44.245Z,42.42
2022-12-04T06:36:47.754Z,42.90
2022-12-04T06:37:51.651Z,45.85
2022-12-04T06:38:56.940Z,43.05
2022-12-04T06:40:06.145Z,42.50
2022-12-04T06:41:10.354Z,44.83
2022-12-04T06:42:12.861Z,43.47
2022-12-04T06:43:16.271Z,47.30
2022-12-04T06:44:19.749Z,47.47
2022-12-04T06:45:28.786Z,46.42
2022-12-04T06:46:45.077Z,46.00
2022-12-04T06:47:56.005Z,45.00
2022-12-04T06:49:06.153Z,45.60
2022-12-04T06:50:09.141Z,46.08
2022-12-04T06:51:14.110Z,47.42
2022-12-04T06:52:22.818Z,44.95
2022-12-04T06:53:30.399Z,44.58
2022-12-04T06:54:33.831Z,46.22
2022-12-04T06:55:37.417Z,44.67
2022-12-04T06:56:41.120Z,46.92
2022-12-04T06:57:49.751Z,45.78
2022-12-04T06:58:53.947Z,44.45
2022-12-04T06:59:56.805Z,43.10
2022-12-04T07:01:00.608Z,43.22
2022-12-04T07:02:09.816Z,42.10
2022-12-04T07:03:13.267Z,40.75
2022-12-04T07:04:16.673Z,43.13
2022-12-04T07:05:19.168Z,44.10
2022-12-04T07:06:23.732Z,43.88
2022-12-04T07:07:32.877Z,42.78
2022-12-04T07:08:37.595Z,41.38
2022-12-04T07:09:40.093Z,42.75
2022-12-04T07:10:43.831Z,43.25
2022-12-04T07:11:46.623Z,40.92
2022-12-04T07:12:56.816Z,42.38
2022-12-04T07:13:59.356Z,38.95
2022-12-04T07:15:02.796Z,39.92
2022-12-04T07:16:06.865Z,40.90
2022-12-04T07:17:10.351Z,38.65
2022-12-04T07:18:19.770Z,40.00
2022-12-04T07:19:23.452Z,39.83
2022-12-04T07:20:26.076Z,39.58
2022-12-04T07:21:36.779Z,41.88
2022-12-04T07:22:39.301Z,41.83
2022-12-04T07:23:44.230Z,42.35
2022-12-04T07:24:53.766Z,43.50
2022-12-04T07:25:56.367Z,42.33
2022-12-04T07:26:59.762Z,43.63
2022-12-04T07:28:09.827Z,44.22
2022-12-04T07:29:13.528Z,45.95
2022-12-04T07:30:16.426Z,46.35
2022-12-04T07:31:21.132Z,43.60
2022-12-04T07:32:23.769Z,43.38
2022-12-04T07:33:33.790Z,43.95
2022-12-04T07:34:43.790Z,44.17
2022-12-04T07:35:46.283Z,43.22
2022-12-04T07:36:49.731Z,45.97
2022-12-04T07:37:52.242Z,44.80
2022-12-04T07:39:04.811Z,44.08
2022-12-04T07:40:07.833Z,45.03
2022-12-04T07:41:13.319Z,43.95
2022-12-04T07:42:20.996Z,44.67
2022-12-04T07:43:27.665Z,44.58
2022-12-04T07:44:39.750Z,43.85
2022-12-04T07:45:42.281Z,45.15
2022-12-04T07:46:45.716Z,45.55
2022-12-04T07:47:55.030Z,48.70
2022-12-04T07:49:05.095Z,48.03
2022-12-04T07:50:14.815Z,46.25
2022-12-04T07:51:19.368Z,43.65
2022-12-04T07:52:21.954Z,42.50
2022-12-04T07:53:25.372Z,42.10
2022-12-04T07:54:29.362Z,41.53
2022-12-04T07:55:39.787Z,43.50
2022-12-04T07:56:48.783Z,45.30
2022-12-04T07:57:52.229Z,42.35
2022-12-04T07:58:54.727Z,42.28
2022-12-04T07:59:58.477Z,43.58
2022-12-04T08:01:06.525Z,43.78
2022-12-04T08:02:16.750Z,42.28
2022-12-04T08:03:19.322Z,41.50
2022-12-04T08:04:23.071Z,42.47
2022-12-04T08:05:27.186Z,41.95
2022-12-04T08:06:36.885Z,42.08
2022-12-04T08:07:40.294Z,41.83
2022-12-04T08:08:42.779Z,42.42
2022-12-04T08:09:47.463Z,39.33
2022-12-04T08:10:50.123Z,41.08
2022-12-04T08:11:59.767Z,38.75
2022-12-04T08:13:03.135Z,39.55
2022-12-04T08:14:06.339Z,40.25
2022-12-04T08:15:10.195Z,39.53
2022-12-04T08:16:13.195Z,39.28
2022-12-04T08:17:22.792Z,39.92
2022-12-04T08:18:31.784Z,38.65
2022-12-04T08:19:35.162Z,39.63
2022-12-04T08:20:37.605Z,37.92
2022-12-04T08:21:40.980Z,38.38
2022-12-04T08:22:44.330Z,39.03
2022-12-04T08:23:53.784Z,38.85
2022-12-04T08:24:58.462Z,37.97
2022-12-04T08:26:01.000Z,38.38
2022-12-04T08:27:04.388Z,38.47
2022-12-04T08:28:06.908Z,38.65
2022-12-04T08:29:16.817Z,39.42
2022-12-04T08:30:20.710Z,37.15
2022-12-04T08:31:24.211Z,40.15
2022-12-04T08:32:27.724Z,38.95
2022-12-04T08:33:31.115Z,38.88
2022-12-04T08:34:39.744Z,38.40
2022-12-04T08:35:43.096Z,39.00
2022-12-04T08:36:46.495Z,37.28
2022-12-04T08:37:49.083Z,37.90
2022-12-04T08:38:52.939Z,38.85
2022-12-04T08:40:04.783Z,40.03
2022-12-04T08:41:09.083Z,38.30
2022-12-04T08:42:12.688Z,38.08
2022-12-04T08:43:15.148Z,36.35
2022-12-04T08:44:24.751Z,39.20
2022-12-04T08:45:28.124Z,41.20
2022-12-04T08:46:38.822Z,44.30
2022-12-04T08:47:42.266Z,46.38
2022-12-04T08:48:53.091Z,42.80
2022-12-04T08:50:09.879Z,39.28
2022-12-04T08:51:21.781Z,39.25
2022-12-04T08:52:25.121Z,38.53
2022-12-04T08:53:27.817Z,38.05
2022-12-04T08:54:35.909Z,37.72
2022-12-04T08:55:40.107Z,34.75
2022-12-04T08:56:50.766Z,36.60
2022-12-04T08:57:53.258Z,34.13
2022-12-04T08:58:57.691Z,35.95
2022-12-04T09:00:01.826Z,37.00
2022-12-04T09:01:11.936Z,36.92
2022-12-04T09:02:22.745Z,37.55
2022-12-04T09:03:30.691Z,35.50
2022-12-04T09:04:36.274Z,36.17
2022-12-04T09:05:45.845Z,36.47
2022-12-04T09:06:49.253Z,37.00
2022-12-04T09:07:52.666Z,38.20
2022-12-04T09:08:55.632Z,39.38
2022-12-04T09:09:59.452Z,36.00
2022-12-04T09:11:13.772Z,36.60
2022-12-04T09:12:17.158Z,35.25
2022-12-04T09:13:25.763Z,34.28
2022-12-04T09:14:35.777Z,34.63
2022-12-04T09:15:39.662Z,32.13
2022-12-04T09:16:49.754Z,34.28
2022-12-04T09:17:58.767Z,32.05
2022-12-04T09:19:02.336Z,30.67
2022-12-04T09:20:05.427Z,30.45
2022-12-04T09:21:11.451Z,32.95
2022-12-04T09:22:14.861Z,33.10
2022-12-04T09:23:23.790Z,32.05
2022-12-04T09:24:28.196Z,30.45
2022-12-04T09:25:30.645Z,32.10
2022-12-04T09:26:35.283Z,31.02
2022-12-04T09:27:37.752Z,30.77
2022-12-04T09:28:47.767Z,30.48
2022-12-04T09:29:51.188Z,31.30
2022-12-04T09:30:57.952Z,32.45
2022-12-04T09:32:01.372Z,31.15
2022-12-04T09:33:03.842Z,31.85
2022-12-04T09:34:13.764Z,32.50
2022-12-04T09:35:23.756Z,34.15
2022-12-04T09:36:27.109Z,32.45
2022-12-04T09:37:29.591Z,33.30
2022-12-04T09:38:33.265Z,35.05
2022-12-04T09:39:36.650Z,34.03
2022-12-04T09:40:48.878Z,37.40
2022-12-04T09:42:10.786Z,33.42
2022-12-04T09:43:20.311Z,32.03
2022-12-04T09:44:24.409Z,32.15
2022-12-04T09:45:28.526Z,32.67
2022-12-04T09:46:40.862Z,34.90
2022-12-04T09:47:46.168Z,35.45
2022-12-04T09:48:56.892Z,36.38
2022-12-04T09:50:09.036Z,35.05
2022-12-04T09:51:18.832Z,36.05
2022-12-04T09:52:34.233Z,35.30
2022-12-04T09:53:43.863Z,36.17
2022-12-04T09:54:47.676Z,33.42
2022-12-04T09:55:55.424Z,33.17
2022-12-04T09:57:03.241Z,33.78
2022-12-04T09:58:14.776Z,32.40
2022-12-04T09:59:19.412Z,33.03
2022-12-04T10:00:23.247Z,30.15
2022-12-04T10:01:35.756Z,32.35
2022-12-04T10:02:39.034Z,31.38
2022-12-04T10:03:42.718Z,31.40
2022-12-04T10:04:52.781Z,32.85
2022-12-04T10:05:57.305Z,31.60
2022-12-04T10:07:05.060Z,30.95
2022-12-04T10:08:16.858Z,30.85
2022-12-04T10:09:24.011Z,31.00
2022-12-04T10:10:36.784Z,32.53
2022-12-04T10:11:44.300Z,32.10
2022-12-04T10:12:54.190Z,33.33
2022-12-04T10:14:15.469Z,33.10
2022-12-04T10:15:32.813Z,44.90
2022-12-04T10:16:40.067Z,41.15
2022-12-04T10:17:53.344Z,32.42
2022-12-04T10:19:00.352Z,42.67
2022-12-04T10:20:08.050Z,35.90
2022-12-04T10:21:28.780Z,32.65
2022-12-04T10:22:35.111Z,29.92
2022-12-04T10:23:42.476Z,28.45
2022-12-04T10:24:48.665Z,28.50
2022-12-04T10:25:52.245Z,29.58
2022-12-04T10:27:03.763Z,27.77
2022-12-04T10:28:22.804Z,28.85
2022-12-04T10:29:34.804Z,28.48
2022-12-04T10:30:38.155Z,35.33
2022-12-04T10:31:42.253Z,35.42
2022-12-04T10:32:45.775Z,32.45
2022-12-04T10:33:53.709Z,32.42
2022-12-04T10:35:05.117Z,32.30
2022-12-04T10:36:09.382Z,29.42
2022-12-04T10:37:14.327Z,31.52
2022-12-04T10:38:25.735Z,35.25
2022-12-04T10:39:40.822Z,36.38
2022-12-04T10:40:49.025Z,31.42
2022-12-04T10:41:53.855Z,31.80
2022-12-04T10:42:59.373Z,30.30
2022-12-04T10:44:04.201Z,32.90
2022-12-04T10:45:14.832Z,31.67
2022-12-04T10:46:23.345Z,31.02
2022-12-04T10:47:27.207Z,34.30
2022-12-04T10:48:40.035Z,34.22
2022-12-04T10:49:57.104Z,32.63
2022-12-04T10:51:00.776Z,31.40
2022-12-04T10:52:04.245Z,31.38
2022-12-04T10:53:12.207Z,30.35
2022-12-04T10:54:21.518Z,30.80
2022-12-04T10:55:36.815Z,29.38
2022-12-04T10:56:57.952Z,29.80
2022-12-04T10:58:02.832Z,29.42
2022-12-04T10:59:07.783Z,30.38
2022-12-04T11:00:34.818Z,29.58
2022-12-04T11:01:37.531Z,28.20
2022-12-04T11:02:41.322Z,30.95
2022-12-04T11:03:44.904Z,29.85
2022-12-04T11:04:59.829Z,30.30
2022-12-04T11:06:03.136Z,28.35
2022-12-04T11:07:07.774Z,29.23
2022-12-04T11:08:20.456Z,29.77
2022-12-04T11:09:25.534Z,29.42
2022-12-04T11:10:38.832Z,28.42
2022-12-04T11:11:42.226Z,27.50
2022-12-04T11:12:54.307Z,28.83
2022-12-04T11:14:05.834Z,29.42
2022-12-04T11:15:21.986Z,29.67
2022-12-04T11:16:34.375Z,29.85
2022-12-04T11:17:37.838Z,31.83
2022-12-04T11:18:48.067Z,29.05
2022-12-04T11:20:00.428Z,28.27
2022-12-04T11:21:10.838Z,27.13
2022-12-04T11:22:21.977Z,27.85
2022-12-04T11:23:26.338Z,28.77
2022-12-04T11:24:32.144Z,28.98
2022-12-04T11:25:36.416Z,30.75
2022-12-04T11:26:43.797Z,30.98
2022-12-04T11:27:53.861Z,29.55
2022-12-04T11:28:58.709Z,28.40
2022-12-04T11:30:02.404Z,29.50
2022-12-04T11:31:08.192Z,28.30
2022-12-04T11:32:26.811Z,29.40
2022-12-04T11:33:31.509Z,28.65
2022-12-04T11:34:37.283Z,29.05
2022-12-04T11:35:40.461Z,27.15
2022-12-04T11:36:44.356Z,29.65
2022-12-04T11:37:59.775Z,31.20
2022-12-04T11:39:09.421Z,29.65
2022-12-04T11:40:18.146Z,30.30
2022-12-04T11:41:28.828Z,28.85
2022-12-04T11:42:33.350Z,28.80
2022-12-04T11:43:44.918Z,27.77
2022-12-04T11:44:58.778Z,27.00
2022-12-04T11:46:03.427Z,30.65
2022-12-04T11:47:27.350Z,30.30
2022-12-04T11:48:50.786Z,30.60
2022-12-04T11:50:26.887Z,33.17
2022-12-04T11:51:36.200Z,34.17
2022-12-04T11:52:46.288Z,37.90
2022-12-04T11:53:54.240Z,38.20
2022-12-04T11:55:09.777Z,45.72
2022-12-04T11:56:22.003Z,40.35
2022-12-04T11:57:29.006Z,40.63
2022-12-04T11:59:02.364Z,38.10
2022-12-04T12:00:17.829Z,31.13
2022-12-04T12:01:28.763Z,31.35
2022-12-04T12:02:42.423Z,31.67
2022-12-04T12:03:51.007Z,29.27
2022-12-04T12:05:01.196Z,32.00
2022-12-04T12:06:17.817Z,31.83
2022-12-04T12:07:32.640Z,30.33
2022-12-04T12:08:42.072Z,30.92
2022-12-04T12:09:49.787Z,31.27
2022-12-04T12:11:03.971Z,31.95
2022-12-04T12:12:10.945Z,31.38
2022-12-04T12:13:24.867Z,29.23
2022-12-04T12:14:33.480Z,28.95
2022-12-04T12:15:42.825Z,29.15
2022-12-04T12:16:51.587Z,27.08
2022-12-04T12:18:03.088Z,27.92
2022-12-04T12:19:27.811Z,28.60
2022-12-04T12:20:33.838Z,27.90
2022-12-04T12:21:40.452Z,31.17
2022-12-04T12:23:10.804Z,32.30
2022-12-04T12:24:25.262Z,30.25
2022-12-04T12:25:36.823Z,30.13
2022-12-04T12:26:47.401Z,30.52
2022-12-04T12:28:18.250Z,28.70
2022-12-04T12:29:33.807Z,27.13
2022-12-04T12:30:42.456Z,29.27
2022-12-04T12:31:53.383Z,26.92
2022-12-04T12:33:01.644Z,26.13
2022-12-04T12:34:06.484Z,26.80
2022-12-04T12:35:26.820Z,25.85
2022-12-04T12:36:33.101Z,29.65
2022-12-04T12:37:39.089Z,30.20
2022-12-04T12:38:45.202Z,29.27
2022-12-04T12:39:49.685Z,26.48
2022-12-04T12:41:01.796Z,26.35
2022-12-04T12:42:05.330Z,27.02
2022-12-04T12:43:12.304Z,28.05
2022-12-04T12:44:18.910Z,26.27
2022-12-04T12:45:25.650Z,25.65
2022-12-04T12:46:37.820Z,26.90
2022-12-04T12:47:44.352Z,29.00
2022-12-04T12:49:10.759Z,26.00
2022-12-04T12:50:22.771Z,25.15
2022-12-04T12:51:30.844Z,24.95
2022-12-04T12:52:49.867Z,27.20
2022-12-04T12:53:55.314Z,25.52
2022-12-04T12:55:02.526Z,24.27
2022-12-04T12:56:08.889Z,26.48
2022-12-04T12:57:18.459Z,24.40
2022-12-04T12:58:29.880Z,25.00
2022-12-04T12:59:34.315Z,26.95
2022-12-04T13:00:40.177Z,26.35
2022-12-04T13:01:46.893Z,26.85
2022-12-04T13:02:53.434Z,26.08
2022-12-04T13:04:05.828Z,25.05
2022-12-04T13:05:10.734Z,25.60
2022-12-04T13:06:21.819Z,31.95
2022-12-04T13:07:28.224Z,31.55
2022-12-04T13:08:35.957Z,32.45
2022-12-04T13:09:41.379Z,29.55
2022-12-04T13:10:52.811Z,31.70
2022-12-04T13:11:59.082Z,30.40
2022-12-04T13:13:03.446Z,28.42
2022-12-04T13:14:13.869Z,27.65
2022-12-04T13:15:17.894Z,27.20
2022-12-04T13:16:22.534Z,28.77
2022-12-04T13:17:30.754Z,28.50
2022-12-04T13:18:36.147Z,30.85
2022-12-04T13:19:50.837Z,30.52
2022-12-04T13:20:55.793Z,26.67
2022-12-04T13:22:02.217Z,27.38
2022-12-04T13:23:15.170Z,26.83
2022-12-04T13:24:32.556Z,26.20
2022-12-04T13:25:48.870Z,27.65
2022-12-04T13:26:53.393Z,28.42
2022-12-04T13:28:02.571Z,29.05
2022-12-04T13:29:11.004Z,26.92
2022-12-04T13:30:16.355Z,26.15
2022-12-04T13:31:34.341Z,27.77
2022-12-04T13:32:43.713Z,26.65
2022-12-04T13:34:05.958Z,26.20
2022-12-04T13:35:16.093Z,26.48
2022-12-04T13:36:30.786Z,26.52
2022-12-04T13:37:49.836Z,25.80
2022-12-04T13:38:59.497Z,26.27
2022-12-04T13:40:23.064Z,27.02
2022-12-04T13:41:33.833Z,25.35
2022-12-04T13:42:36.495Z,27.10
2022-12-04T13:43:47.416Z,26.85
2022-12-04T13:44:54.808Z,26.63
2022-12-04T13:46:06.952Z,27.35
2022-12-04T13:47:14.335Z,26.27
2022-12-04T13:48:27.128Z,27.08
2022-12-04T13:49:52.805Z,28.83
2022-12-04T13:51:10.884Z,25.88
2022-12-04T13:52:23.826Z,26.95
2022-12-04T13:53:32.960Z,27.08
2022-12-04T13:54:37.537Z,27.98
2022-12-04T13:55:40.764Z,27.20
2022-12-04T13:56:51.865Z,27.52
2022-12-04T13:57:56.170Z,25.90
2022-12-04T13:59:03.828Z,27.05
2022-12-04T14:00:08.209Z,28.40
2022-12-04T14:01:25.970Z,29.17
2022-12-04T14:02:38.878Z,26.40
2022-12-04T14:03:54.859Z,26.23
2022-12-04T14:04:59.904Z,27.50
2022-12-04T14:06:06.287Z,25.80
2022-12-04T14:07:08.979Z,26.80
2022-12-04T14:08:24.856Z,27.77
2022-12-04T14:09:35.870Z,27.88
2022-12-04T14:10:40.699Z,26.63
2022-12-04T14:11:45.403Z,28.17
2022-12-04T14:12:53.842Z,27.52
2022-12-04T14:14:08.120Z,26.75
2022-12-04T14:15:22.424Z,26.25
2022-12-04T14:16:25.945Z,26.92
2022-12-04T14:17:31.019Z,29.98
2022-12-04T14:18:33.613Z,29.90
2022-12-04T14:19:44.834Z,29.52
2022-12-04T14:20:58.174Z,28.45
2022-12-04T14:22:02.990Z,27.38
2022-12-04T14:23:09.265Z,28.85
2022-12-04T14:24:23.845Z,28.13
2022-12-04T14:25:35.025Z,28.15
2022-12-04T14:27:09.541Z,28.65
2022-12-04T14:28:02.147Z,27.85
2022-12-04T14:29:16.963Z,28.60
2022-12-04T14:30:28.928Z,28.13
2022-12-04T14:31:34.396Z,27.17
2022-12-04T14:32:36.848Z,27.88